sensor_id;sensor_type;location;lat;lon;timestamp;P1;durP1;ratioP1;P2;durP2;ratioP2
18933;SDS011;9599;53.706;10.384;2023-02-28T00:01:24;6.03;;;3.73;;
18933;SDS011;9599;53.706;10.384;2023-02-28T00:03:55;9.87;;;3.80;;
18933;SDS011;9599;53.706;10.384;2023-02-28T00:06:23;5.97;;;3.87;;
18933;SDS011;9599;53.706;10.384;2023-02-28T00:08:51;6.07;;;4.27;;
18933;SDS011;9599;53.706;10.384;2023-02-28T00:11:20;9.33;;;4.60;;
18933;SDS011;9599;53.706;10.384;2023-02-28T00:13:48;6.30;;;4.33;;
18933;SDS011;9599;53.706;10.384;2023-02-28T00:16:18;7.77;;;4.87;;
18933;SDS011;9599;53.706;10.384;2023-02-28T00:18:47;5.93;;;4.57;;
18933;SDS011;9599;53.706;10.384;2023-02-28T00:21:17;9.10;;;4.70;;
18933;SDS011;9599;53.706;10.384;2023-02-28T00:23:46;8.13;;;4.63;;
18933;SDS011;9599;53.706;10.384;2023-02-28T00:26:14;8.47;;;4.87;;
18933;SDS011;9599;53.706;10.384;2023-02-28T00:28:44;6.83;;;4.50;;
18933;SDS011;9599;53.706;10.384;2023-02-28T00:31:12;7.33;;;4.87;;
18933;SDS011;9599;53.706;10.384;2023-02-28T00:33:40;6.57;;;4.40;;
18933;SDS011;9599;53.706;10.384;2023-02-28T00:36:09;7.83;;;4.77;;
18933;SDS011;9599;53.706;10.384;2023-02-28T00:38:39;7.20;;;4.40;;
18933;SDS011;9599;53.706;10.384;2023-02-28T00:41:08;6.60;;;4.60;;
18933;SDS011;9599;53.706;10.384;2023-02-28T00:43:37;6.37;;;5.00;;
18933;SDS011;9599;53.706;10.384;2023-02-28T00:46:06;7.73;;;4.70;;
18933;SDS011;9599;53.706;10.384;2023-02-28T00:48:34;6.77;;;4.53;;
18933;SDS011;9599;53.706;10.384;2023-02-28T00:51:04;7.10;;;4.77;;
18933;SDS011;9599;53.706;10.384;2023-02-28T00:53:32;7.57;;;4.97;;
18933;SDS011;9599;53.706;10.384;2023-02-28T00:56:01;8.07;;;4.67;;
18933;SDS011;9599;53.706;10.384;2023-02-28T00:58:31;11.00;;;4.57;;
18933;SDS011;9599;53.706;10.384;2023-02-28T01:00:59;6.27;;;4.43;;
18933;SDS011;9599;53.706;10.384;2023-02-28T01:03:27;8.83;;;4.60;;
18933;SDS011;9599;53.706;10.384;2023-02-28T01:05:55;7.27;;;4.63;;
18933;SDS011;9599;53.706;10.384;2023-02-28T01:08:23;7.43;;;4.83;;
18933;SDS011;9599;53.706;10.384;2023-02-28T01:10:52;6.50;;;4.33;;
18933;SDS011;9599;53.706;10.384;2023-02-28T01:13:22;10.17;;;4.70;;
18933;SDS011;9599;53.706;10.384;2023-02-28T01:15:52;7.90;;;4.60;;
18933;SDS011;9599;53.706;10.384;2023-02-28T01:18:23;7.83;;;5.13;;
18933;SDS011;9599;53.706;10.384;2023-02-28T01:20:51;6.30;;;4.70;;
18933;SDS011;9599;53.706;10.384;2023-02-28T01:23:19;7.53;;;5.13;;
18933;SDS011;9599;53.706;10.384;2023-02-28T01:25:50;7.40;;;5.00;;
18933;SDS011;9599;53.706;10.384;2023-02-28T01:28:18;7.00;;;4.97;;
18933;SDS011;9599;53.706;10.384;2023-02-28T01:30:48;8.60;;;5.07;;
18933;SDS011;9599;53.706;10.384;2023-02-28T01:33:16;5.50;;;4.27;;
18933;SDS011;9599;53.706;10.384;2023-02-28T01:35:44;6.40;;;4.63;;
18933;SDS011;9599;53.706;10.384;2023-02-28T01:38:12;7.80;;;4.70;;
18933;SDS011;9599;53.706;10.384;2023-02-28T01:40:48;5.83;;;4.43;;
18933;SDS011;9599;53.706;10.384;2023-02-28T01:43:19;6.17;;;4.67;;
18933;SDS011;9599;53.706;10.384;2023-02-28T01:45:49;8.97;;;5.43;;
18933;SDS011;9599;53.706;10.384;2023-02-28T01:48:18;8.40;;;5.00;;
18933;SDS011;9599;53.706;10.384;2023-02-28T01:50:48;8.57;;;5.30;;
18933;SDS011;9599;53.706;10.384;2023-02-28T01:53:18;7.07;;;5.07;;
18933;SDS011;9599;53.706;10.384;2023-02-28T01:55:51;8.37;;;4.60;;
18933;SDS011;9599;53.706;10.384;2023-02-28T01:58:20;6.77;;;4.67;;
18933;SDS011;9599;53.706;10.384;2023-02-28T02:00:50;7.07;;;4.60;;
18933;SDS011;9599;53.706;10.384;2023-02-28T02:03:18;6.60;;;4.40;;
18933;SDS011;9599;53.706;10.384;2023-02-28T02:05:48;6.07;;;4.13;;
18933;SDS011;9599;53.706;10.384;2023-02-28T02:08:17;5.43;;;4.67;;
18933;SDS011;9599;53.706;10.384;2023-02-28T02:10:47;6.63;;;4.63;;
18933;SDS011;9599;53.706;10.384;2023-02-28T02:16:14;8.37;;;5.17;;
18933;SDS011;9599;53.706;10.384;2023-02-28T02:18:54;9.47;;;5.20;;
18933;SDS011;9599;53.706;10.384;2023-02-28T02:34:01;8.83;;;4.93;;
18933;SDS011;9599;53.706;10.384;2023-02-28T02:36:37;8.40;;;5.37;;
18933;SDS011;9599;53.706;10.384;2023-02-28T02:39:13;7.03;;;4.60;;
18933;SDS011;9599;53.706;10.384;2023-02-28T02:41:47;6.17;;;4.50;;
18933;SDS011;9599;53.706;10.384;2023-02-28T02:44:19;7.53;;;4.77;;
18933;SDS011;9599;53.706;10.384;2023-02-28T02:46:50;7.30;;;4.93;;
18933;SDS011;9599;53.706;10.384;2023-02-28T02:49:22;8.03;;;4.63;;
18933;SDS011;9599;53.706;10.384;2023-02-28T02:51:54;5.63;;;3.87;;
18933;SDS011;9599;53.706;10.384;2023-02-28T02:54:26;6.57;;;3.97;;
18933;SDS011;9599;53.706;10.384;2023-02-28T02:56:56;5.93;;;4.30;;
18933;SDS011;9599;53.706;10.384;2023-02-28T02:59:26;5.93;;;4.20;;
18933;SDS011;9599;53.706;10.384;2023-02-28T03:01:57;6.43;;;4.20;;
18933;SDS011;9599;53.706;10.384;2023-02-28T03:04:32;7.63;;;4.50;;
18933;SDS011;9599;53.706;10.384;2023-02-28T03:07:05;6.80;;;4.13;;
18933;SDS011;9599;53.706;10.384;2023-02-28T03:09:33;4.33;;;3.70;;
18933;SDS011;9599;53.706;10.384;2023-02-28T03:12:06;4.67;;;3.53;;
18933;SDS011;9599;53.706;10.384;2023-02-28T03:14:45;5.23;;;3.70;;
18933;SDS011;9599;53.706;10.384;2023-02-28T03:17:35;5.13;;;3.33;;
18933;SDS011;9599;53.706;10.384;2023-02-28T03:20:17;5.60;;;3.50;;
18933;SDS011;9599;53.706;10.384;2023-02-28T03:22:59;6.83;;;3.43;;
18933;SDS011;9599;53.706;10.384;2023-02-28T03:25:37;4.63;;;3.53;;
18933;SDS011;9599;53.706;10.384;2023-02-28T03:28:11;5.50;;;3.60;;
18933;SDS011;9599;53.706;10.384;2023-02-28T03:30:46;5.00;;;3.50;;
18933;SDS011;9599;53.706;10.384;2023-02-28T03:33:20;5.77;;;3.20;;
18933;SDS011;9599;53.706;10.384;2023-02-28T03:35:53;4.37;;;3.47;;
18933;SDS011;9599;53.706;10.384;2023-02-28T03:38:28;6.13;;;3.20;;
18933;SDS011;9599;53.706;10.384;2023-02-28T03:41:02;6.20;;;3.20;;
18933;SDS011;9599;53.706;10.384;2023-02-28T03:43:38;4.57;;;3.23;;
18933;SDS011;9599;53.706;10.384;2023-02-28T03:46:15;4.93;;;3.37;;
18933;SDS011;9599;53.706;10.384;2023-02-28T03:48:48;4.10;;;2.93;;
18933;SDS011;9599;53.706;10.384;2023-02-28T03:51:22;8.33;;;3.70;;
18933;SDS011;9599;53.706;10.384;2023-02-28T03:53:53;4.17;;;3.30;;
18933;SDS011;9599;53.706;10.384;2023-02-28T03:56:26;3.97;;;3.13;;
18933;SDS011;9599;53.706;10.384;2023-02-28T03:58:58;7.43;;;3.30;;
18933;SDS011;9599;53.706;10.384;2023-02-28T04:01:32;4.53;;;3.30;;
18933;SDS011;9599;53.706;10.384;2023-02-28T04:04:04;5.73;;;3.17;;
18933;SDS011;9599;53.706;10.384;2023-02-28T04:06:34;4.77;;;3.10;;
18933;SDS011;9599;53.706;10.384;2023-02-28T04:09:02;3.87;;;3.30;;
18933;SDS011;9599;53.706;10.384;2023-02-28T04:11:32;5.13;;;2.80;;
18933;SDS011;9599;53.706;10.384;2023-02-28T04:14:02;5.53;;;3.20;;
18933;SDS011;9599;53.706;10.384;2023-02-28T04:16:30;5.07;;;2.77;;
18933;SDS011;9599;53.706;10.384;2023-02-28T04:19:02;5.50;;;3.30;;
18933;SDS011;9599;53.706;10.384;2023-02-28T04:21:32;5.53;;;3.43;;
18933;SDS011;9599;53.706;10.384;2023-02-28T04:24:03;4.57;;;3.00;;
18933;SDS011;9599;53.706;10.384;2023-02-28T04:26:32;5.27;;;3.50;;
18933;SDS011;9599;53.706;10.384;2023-02-28T04:29:02;7.87;;;3.23;;
18933;SDS011;9599;53.706;10.384;2023-02-28T04:31:31;4.67;;;3.20;;
18933;SDS011;9599;53.706;10.384;2023-02-28T04:33:59;6.47;;;3.20;;
18933;SDS011;9599;53.706;10.384;2023-02-28T04:36:27;8.83;;;3.60;;
18933;SDS011;9599;53.706;10.384;2023-02-28T04:38:57;7.03;;;3.43;;
18933;SDS011;9599;53.706;10.384;2023-02-28T04:41:25;5.63;;;3.53;;
18933;SDS011;9599;53.706;10.384;2023-02-28T04:43:57;6.90;;;3.53;;
18933;SDS011;9599;53.706;10.384;2023-02-28T04:46:25;6.43;;;3.43;;
18933;SDS011;9599;53.706;10.384;2023-02-28T04:48:53;5.57;;;3.57;;
18933;SDS011;9599;53.706;10.384;2023-02-28T04:51:21;5.37;;;3.50;;
18933;SDS011;9599;53.706;10.384;2023-02-28T04:53:49;6.37;;;3.90;;
18933;SDS011;9599;53.706;10.384;2023-02-28T04:56:18;5.57;;;3.73;;
18933;SDS011;9599;53.706;10.384;2023-02-28T04:58:46;6.00;;;4.00;;
18933;SDS011;9599;53.706;10.384;2023-02-28T05:01:16;7.30;;;3.80;;
18933;SDS011;9599;53.706;10.384;2023-02-28T05:03:46;5.50;;;3.40;;
18933;SDS011;9599;53.706;10.384;2023-02-28T05:06:15;6.83;;;3.77;;
18933;SDS011;9599;53.706;10.384;2023-02-28T05:08:43;7.80;;;3.37;;
18933;SDS011;9599;53.706;10.384;2023-02-28T05:11:19;8.90;;;4.50;;
18933;SDS011;9599;53.706;10.384;2023-02-28T05:13:48;7.57;;;3.93;;
18933;SDS011;9599;53.706;10.384;2023-02-28T05:16:16;8.60;;;4.17;;
18933;SDS011;9599;53.706;10.384;2023-02-28T05:18:45;9.10;;;3.97;;
18933;SDS011;9599;53.706;10.384;2023-02-28T05:21:27;9.10;;;4.37;;
18933;SDS011;9599;53.706;10.384;2023-02-28T05:23:59;7.80;;;4.30;;
18933;SDS011;9599;53.706;10.384;2023-02-28T05:26:29;6.60;;;3.57;;
18933;SDS011;9599;53.706;10.384;2023-02-28T05:28:58;5.53;;;3.77;;
18933;SDS011;9599;53.706;10.384;2023-02-28T05:31:26;6.80;;;4.07;;
18933;SDS011;9599;53.706;10.384;2023-02-28T05:33:54;5.87;;;3.97;;
18933;SDS011;9599;53.706;10.384;2023-02-28T05:36:22;4.43;;;3.63;;
18933;SDS011;9599;53.706;10.384;2023-02-28T05:38:50;5.00;;;4.00;;
18933;SDS011;9599;53.706;10.384;2023-02-28T05:41:19;6.93;;;3.53;;
18933;SDS011;9599;53.706;10.384;2023-02-28T05:43:49;5.37;;;3.90;;
18933;SDS011;9599;53.706;10.384;2023-02-28T05:46:17;4.90;;;3.50;;
18933;SDS011;9599;53.706;10.384;2023-02-28T05:48:46;4.67;;;3.20;;
18933;SDS011;9599;53.706;10.384;2023-02-28T05:51:15;6.80;;;3.90;;
18933;SDS011;9599;53.706;10.384;2023-02-28T05:53:44;5.33;;;3.40;;
18933;SDS011;9599;53.706;10.384;2023-02-28T05:56:11;5.50;;;3.60;;
18933;SDS011;9599;53.706;10.384;2023-02-28T05:58:39;5.07;;;3.60;;
18933;SDS011;9599;53.706;10.384;2023-02-28T06:01:22;8.23;;;3.63;;
18933;SDS011;9599;53.706;10.384;2023-02-28T06:03:53;6.27;;;3.73;;
18933;SDS011;9599;53.706;10.384;2023-02-28T06:06:21;5.37;;;3.70;;
18933;SDS011;9599;53.706;10.384;2023-02-28T06:08:50;5.13;;;3.63;;
18933;SDS011;9599;53.706;10.384;2023-02-28T06:11:18;6.03;;;3.60;;
18933;SDS011;9599;53.706;10.384;2023-02-28T06:13:46;6.00;;;4.13;;
18933;SDS011;9599;53.706;10.384;2023-02-28T06:16:14;4.70;;;3.30;;
18933;SDS011;9599;53.706;10.384;2023-02-28T06:18:44;6.13;;;3.90;;
18933;SDS011;9599;53.706;10.384;2023-02-28T06:21:11;6.63;;;3.83;;
18933;SDS011;9599;53.706;10.384;2023-02-28T06:23:39;6.00;;;3.90;;
18933;SDS011;9599;53.706;10.384;2023-02-28T06:26:07;7.17;;;3.70;;
18933;SDS011;9599;53.706;10.384;2023-02-28T06:28:35;6.57;;;4.13;;
18933;SDS011;9599;53.706;10.384;2023-02-28T06:31:07;6.60;;;3.77;;
18933;SDS011;9599;53.706;10.384;2023-02-28T06:33:35;8.43;;;4.20;;
18933;SDS011;9599;53.706;10.384;2023-02-28T06:36:05;7.53;;;3.90;;
18933;SDS011;9599;53.706;10.384;2023-02-28T06:38:34;10.13;;;4.50;;
18933;SDS011;9599;53.706;10.384;2023-02-28T06:41:03;5.20;;;3.87;;
18933;SDS011;9599;53.706;10.384;2023-02-28T06:43:33;7.53;;;3.83;;
18933;SDS011;9599;53.706;10.384;2023-02-28T06:46:04;6.57;;;4.00;;
18933;SDS011;9599;53.706;10.384;2023-02-28T06:48:34;8.60;;;4.00;;
18933;SDS011;9599;53.706;10.384;2023-02-28T06:51:03;8.23;;;3.80;;
18933;SDS011;9599;53.706;10.384;2023-02-28T06:53:34;7.50;;;3.70;;
18933;SDS011;9599;53.706;10.384;2023-02-28T06:56:03;8.50;;;4.10;;
18933;SDS011;9599;53.706;10.384;2023-02-28T06:58:32;5.87;;;4.20;;
18933;SDS011;9599;53.706;10.384;2023-02-28T07:01:01;9.00;;;4.70;;
18933;SDS011;9599;53.706;10.384;2023-02-28T07:03:30;5.60;;;3.83;;
18933;SDS011;9599;53.706;10.384;2023-02-28T07:06:00;7.57;;;4.07;;
18933;SDS011;9599;53.706;10.384;2023-02-28T07:08:29;5.40;;;4.00;;
18933;SDS011;9599;53.706;10.384;2023-02-28T07:10:58;8.23;;;4.33;;
18933;SDS011;9599;53.706;10.384;2023-02-28T07:13:26;5.70;;;4.10;;
18933;SDS011;9599;53.706;10.384;2023-02-28T07:15:54;7.30;;;4.30;;
18933;SDS011;9599;53.706;10.384;2023-02-28T07:18:23;6.13;;;4.00;;
18933;SDS011;9599;53.706;10.384;2023-02-28T07:20:52;5.57;;;4.10;;
18933;SDS011;9599;53.706;10.384;2023-02-28T07:23:20;8.23;;;4.03;;
18933;SDS011;9599;53.706;10.384;2023-02-28T07:25:50;6.77;;;4.17;;
18933;SDS011;9599;53.706;10.384;2023-02-28T07:28:19;6.93;;;4.10;;
18933;SDS011;9599;53.706;10.384;2023-02-28T07:30:47;6.90;;;3.90;;
18933;SDS011;9599;53.706;10.384;2023-02-28T07:33:15;7.00;;;4.73;;
18933;SDS011;9599;53.706;10.384;2023-02-28T07:35:43;8.13;;;4.67;;
18933;SDS011;9599;53.706;10.384;2023-02-28T07:38:11;6.03;;;3.93;;
18933;SDS011;9599;53.706;10.384;2023-02-28T07:40:39;7.43;;;4.10;;
18933;SDS011;9599;53.706;10.384;2023-02-28T07:43:09;9.10;;;4.53;;
18933;SDS011;9599;53.706;10.384;2023-02-28T07:45:37;7.00;;;4.43;;
18933;SDS011;9599;53.706;10.384;2023-02-28T07:48:05;6.40;;;4.50;;
18933;SDS011;9599;53.706;10.384;2023-02-28T07:50:33;9.33;;;4.90;;
18933;SDS011;9599;53.706;10.384;2023-02-28T07:53:01;8.30;;;4.63;;
18933;SDS011;9599;53.706;10.384;2023-02-28T07:55:29;8.33;;;5.27;;
18933;SDS011;9599;53.706;10.384;2023-02-28T07:57:57;8.80;;;5.67;;
18933;SDS011;9599;53.706;10.384;2023-02-28T08:00:26;8.70;;;5.30;;
18933;SDS011;9599;53.706;10.384;2023-02-28T08:02:55;8.63;;;5.20;;
18933;SDS011;9599;53.706;10.384;2023-02-28T08:05:23;8.73;;;5.13;;
18933;SDS011;9599;53.706;10.384;2023-02-28T08:07:50;7.90;;;5.50;;
18933;SDS011;9599;53.706;10.384;2023-02-28T08:10:19;10.63;;;5.70;;
18933;SDS011;9599;53.706;10.384;2023-02-28T08:12:47;9.03;;;5.20;;
18933;SDS011;9599;53.706;10.384;2023-02-28T08:15:15;7.00;;;5.00;;
18933;SDS011;9599;53.706;10.384;2023-02-28T08:17:44;9.93;;;5.20;;
18933;SDS011;9599;53.706;10.384;2023-02-28T08:20:12;6.77;;;4.60;;
18933;SDS011;9599;53.706;10.384;2023-02-28T08:22:40;7.07;;;4.60;;
18933;SDS011;9599;53.706;10.384;2023-02-28T08:25:11;6.80;;;4.17;;
18933;SDS011;9599;53.706;10.384;2023-02-28T08:27:39;8.03;;;4.20;;
18933;SDS011;9599;53.706;10.384;2023-02-28T08:30:07;7.80;;;4.03;;
18933;SDS011;9599;53.706;10.384;2023-02-28T08:32:39;7.53;;;4.37;;
18933;SDS011;9599;53.706;10.384;2023-02-28T08:35:09;5.80;;;4.30;;
18933;SDS011;9599;53.706;10.384;2023-02-28T08:37:37;7.73;;;4.17;;
18933;SDS011;9599;53.706;10.384;2023-02-28T08:40:06;5.80;;;4.20;;
18933;SDS011;9599;53.706;10.384;2023-02-28T08:42:35;5.97;;;4.10;;
18933;SDS011;9599;53.706;10.384;2023-02-28T08:45:03;7.23;;;4.00;;
18933;SDS011;9599;53.706;10.384;2023-02-28T08:47:32;5.10;;;3.77;;
18933;SDS011;9599;53.706;10.384;2023-02-28T08:50:00;6.27;;;3.83;;
18933;SDS011;9599;53.706;10.384;2023-02-28T08:52:29;5.73;;;4.00;;
18933;SDS011;9599;53.706;10.384;2023-02-28T08:54:57;7.80;;;4.07;;
18933;SDS011;9599;53.706;10.384;2023-02-28T08:57:25;5.70;;;3.93;;
18933;SDS011;9599;53.706;10.384;2023-02-28T08:59:53;7.50;;;3.87;;
18933;SDS011;9599;53.706;10.384;2023-02-28T09:02:21;7.97;;;3.70;;
18933;SDS011;9599;53.706;10.384;2023-02-28T09:04:49;4.70;;;3.47;;
18933;SDS011;9599;53.706;10.384;2023-02-28T09:07:17;4.80;;;3.40;;
18933;SDS011;9599;53.706;10.384;2023-02-28T09:09:47;6.10;;;3.53;;
18933;SDS011;9599;53.706;10.384;2023-02-28T09:12:21;5.93;;;3.57;;
18933;SDS011;9599;53.706;10.384;2023-02-28T09:14:49;5.83;;;3.73;;
18933;SDS011;9599;53.706;10.384;2023-02-28T09:17:18;5.90;;;3.57;;
18933;SDS011;9599;53.706;10.384;2023-02-28T09:19:47;5.60;;;3.30;;
18933;SDS011;9599;53.706;10.384;2023-02-28T09:22:16;5.87;;;2.80;;
18933;SDS011;9599;53.706;10.384;2023-02-28T09:24:43;5.67;;;3.40;;
18933;SDS011;9599;53.706;10.384;2023-02-28T09:27:13;5.07;;;3.90;;
18933;SDS011;9599;53.706;10.384;2023-02-28T09:29:41;10.83;;;4.20;;
18933;SDS011;9599;53.706;10.384;2023-02-28T09:32:09;7.60;;;5.27;;
18933;SDS011;9599;53.706;10.384;2023-02-28T09:34:37;11.40;;;5.60;;
18933;SDS011;9599;53.706;10.384;2023-02-28T09:37:05;7.37;;;4.33;;
18933;SDS011;9599;53.706;10.384;2023-02-28T09:39:33;7.17;;;4.10;;
18933;SDS011;9599;53.706;10.384;2023-02-28T09:42:02;8.80;;;5.00;;
18933;SDS011;9599;53.706;10.384;2023-02-28T09:44:33;10.23;;;4.50;;
18933;SDS011;9599;53.706;10.384;2023-02-28T09:47:06;11.37;;;4.97;;
18933;SDS011;9599;53.706;10.384;2023-02-28T09:49:40;10.77;;;5.93;;
18933;SDS011;9599;53.706;10.384;2023-02-28T09:52:10;9.33;;;5.43;;
18933;SDS011;9599;53.706;10.384;2023-02-28T09:54:42;7.80;;;5.73;;
18933;SDS011;9599;53.706;10.384;2023-02-28T09:57:13;8.57;;;5.70;;
18933;SDS011;9599;53.706;10.384;2023-02-28T09:59:52;7.47;;;4.80;;
18933;SDS011;9599;53.706;10.384;2023-02-28T10:02:41;8.00;;;5.17;;
18933;SDS011;9599;53.706;10.384;2023-02-28T10:05:31;5.57;;;3.60;;
18933;SDS011;9599;53.706;10.384;2023-02-28T10:08:05;7.60;;;4.57;;
18933;SDS011;9599;53.706;10.384;2023-02-28T10:10:40;7.60;;;4.30;;
18933;SDS011;9599;53.706;10.384;2023-02-28T10:13:19;5.47;;;3.90;;
18933;SDS011;9599;53.706;10.384;2023-02-28T10:15:53;5.70;;;3.87;;
18933;SDS011;9599;53.706;10.384;2023-02-28T10:18:27;5.37;;;4.20;;
18933;SDS011;9599;53.706;10.384;2023-02-28T10:21:02;4.70;;;3.60;;
18933;SDS011;9599;53.706;10.384;2023-02-28T10:23:31;4.17;;;2.93;;
18933;SDS011;9599;53.706;10.384;2023-02-28T10:26:08;5.40;;;3.10;;
18933;SDS011;9599;53.706;10.384;2023-02-28T10:28:38;4.23;;;2.60;;
18933;SDS011;9599;53.706;10.384;2023-02-28T10:31:09;4.10;;;2.80;;
18933;SDS011;9599;53.706;10.384;2023-02-28T10:33:41;3.90;;;2.93;;
18933;SDS011;9599;53.706;10.384;2023-02-28T10:36:10;4.13;;;3.13;;
18933;SDS011;9599;53.706;10.384;2023-02-28T10:38:43;2.77;;;2.43;;
18933;SDS011;9599;53.706;10.384;2023-02-28T10:41:13;3.67;;;2.93;;
18933;SDS011;9599;53.706;10.384;2023-02-28T10:43:43;4.00;;;2.73;;
18933;SDS011;9599;53.706;10.384;2023-02-28T10:46:14;3.17;;;2.57;;
18933;SDS011;9599;53.706;10.384;2023-02-28T10:49:00;3.20;;;2.17;;
18933;SDS011;9599;53.706;10.384;2023-02-28T10:51:36;3.87;;;2.80;;
18933;SDS011;9599;53.706;10.384;2023-02-28T10:54:06;4.57;;;2.73;;
18933;SDS011;9599;53.706;10.384;2023-02-28T10:56:44;4.97;;;3.40;;
18933;SDS011;9599;53.706;10.384;2023-02-28T10:59:29;7.07;;;3.37;;
18933;SDS011;9599;53.706;10.384;2023-02-28T11:01:59;5.00;;;3.30;;
18933;SDS011;9599;53.706;10.384;2023-02-28T11:04:34;4.87;;;3.20;;
18933;SDS011;9599;53.706;10.384;2023-02-28T11:07:06;5.27;;;3.37;;
18933;SDS011;9599;53.706;10.384;2023-02-28T11:09:48;4.00;;;3.10;;
18933;SDS011;9599;53.706;10.384;2023-02-28T11:12:19;5.20;;;3.60;;
18933;SDS011;9599;53.706;10.384;2023-02-28T11:14:49;5.43;;;3.50;;
18933;SDS011;9599;53.706;10.384;2023-02-28T11:17:22;3.93;;;2.90;;
18933;SDS011;9599;53.706;10.384;2023-02-28T11:19:53;4.23;;;2.73;;
18933;SDS011;9599;53.706;10.384;2023-02-28T11:22:24;3.37;;;2.50;;
18933;SDS011;9599;53.706;10.384;2023-02-28T11:24:56;3.87;;;2.80;;
18933;SDS011;9599;53.706;10.384;2023-02-28T11:27:40;2.90;;;2.40;;
18933;SDS011;9599;53.706;10.384;2023-02-28T11:33:20;3.23;;;2.50;;
18933;SDS011;9599;53.706;10.384;2023-02-28T11:35:50;4.00;;;2.63;;
18933;SDS011;9599;53.706;10.384;2023-02-28T11:38:19;3.23;;;2.67;;
18933;SDS011;9599;53.706;10.384;2023-02-28T11:40:48;4.10;;;2.70;;
18933;SDS011;9599;53.706;10.384;2023-02-28T11:43:30;4.83;;;3.40;;
18933;SDS011;9599;53.706;10.384;2023-02-28T11:46:15;3.43;;;2.43;;
18933;SDS011;9599;53.706;10.384;2023-02-28T11:48:55;3.67;;;2.50;;
18933;SDS011;9599;53.706;10.384;2023-02-28T11:51:32;5.47;;;2.60;;
18933;SDS011;9599;53.706;10.384;2023-02-28T11:54:08;2.77;;;2.07;;
18933;SDS011;9599;53.706;10.384;2023-02-28T11:56:49;3.00;;;2.30;;
18933;SDS011;9599;53.706;10.384;2023-02-28T11:59:44;3.50;;;2.30;;
18933;SDS011;9599;53.706;10.384;2023-02-28T12:02:25;2.87;;;2.20;;
18933;SDS011;9599;53.706;10.384;2023-02-28T12:05:02;3.60;;;2.20;;
18933;SDS011;9599;53.706;10.384;2023-02-28T12:07:45;3.67;;;2.23;;
18933;SDS011;9599;53.706;10.384;2023-02-28T12:10:20;3.23;;;2.70;;
18933;SDS011;9599;53.706;10.384;2023-02-28T12:12:54;2.60;;;2.00;;
18933;SDS011;9599;53.706;10.384;2023-02-28T12:15:38;3.10;;;2.30;;
18933;SDS011;9599;53.706;10.384;2023-02-28T12:18:36;4.17;;;2.60;;
18933;SDS011;9599;53.706;10.384;2023-02-28T12:21:18;3.33;;;2.20;;
18933;SDS011;9599;53.706;10.384;2023-02-28T12:23:57;4.77;;;2.37;;
18933;SDS011;9599;53.706;10.384;2023-02-28T12:26:40;3.13;;;2.33;;
18933;SDS011;9599;53.706;10.384;2023-02-28T12:29:12;4.00;;;2.80;;
18933;SDS011;9599;53.706;10.384;2023-02-28T12:31:45;7.23;;;2.80;;
18933;SDS011;9599;53.706;10.384;2023-02-28T12:34:17;3.73;;;2.53;;
18933;SDS011;9599;53.706;10.384;2023-02-28T12:36:50;3.40;;;2.60;;
18933;SDS011;9599;53.706;10.384;2023-02-28T12:39:23;3.10;;;2.23;;
18933;SDS011;9599;53.706;10.384;2023-02-28T12:41:54;4.87;;;2.87;;
18933;SDS011;9599;53.706;10.384;2023-02-28T12:44:27;4.90;;;2.97;;
18933;SDS011;9599;53.706;10.384;2023-02-28T12:47:00;3.63;;;2.73;;
18933;SDS011;9599;53.706;10.384;2023-02-28T12:49:33;3.43;;;2.00;;
18933;SDS011;9599;53.706;10.384;2023-02-28T12:52:06;3.00;;;2.30;;
18933;SDS011;9599;53.706;10.384;2023-02-28T12:54:38;3.67;;;2.50;;
18933;SDS011;9599;53.706;10.384;2023-02-28T12:57:15;3.53;;;2.53;;
18933;SDS011;9599;53.706;10.384;2023-02-28T12:59:50;2.83;;;2.40;;
18933;SDS011;9599;53.706;10.384;2023-02-28T13:08:49;3.23;;;2.40;;
18933;SDS011;9599;53.706;10.384;2023-02-28T13:11:28;3.47;;;2.77;;
18933;SDS011;9599;53.706;10.384;2023-02-28T13:13:59;3.20;;;2.37;;
18933;SDS011;9599;53.706;10.384;2023-02-28T13:19:22;4.20;;;2.87;;
18933;SDS011;9599;53.706;10.384;2023-02-28T13:21:52;3.53;;;2.33;;
18933;SDS011;9599;53.706;10.384;2023-02-28T13:30:01;2.70;;;1.83;;
18933;SDS011;9599;53.706;10.384;2023-02-28T13:33:25;2.47;;;1.90;;
18933;SDS011;9599;53.706;10.384;2023-02-28T13:36:12;2.87;;;1.90;;
18933;SDS011;9599;53.706;10.384;2023-02-28T13:38:52;2.73;;;2.10;;
18933;SDS011;9599;53.706;10.384;2023-02-28T13:44:12;2.60;;;1.83;;
18933;SDS011;9599;53.706;10.384;2023-02-28T13:49:49;4.50;;;2.30;;
18933;SDS011;9599;53.706;10.384;2023-02-28T13:52:20;2.30;;;2.10;;
18933;SDS011;9599;53.706;10.384;2023-02-28T13:57:58;3.30;;;2.20;;
18933;SDS011;9599;53.706;10.384;2023-02-28T14:00:44;3.33;;;1.73;;
18933;SDS011;9599;53.706;10.384;2023-02-28T14:03:32;4.90;;;2.30;;
18933;SDS011;9599;53.706;10.384;2023-02-28T14:06:25;3.30;;;2.17;;
18933;SDS011;9599;53.706;10.384;2023-02-28T14:08:57;3.17;;;2.10;;
18933;SDS011;9599;53.706;10.384;2023-02-28T14:11:28;4.53;;;2.50;;
18933;SDS011;9599;53.706;10.384;2023-02-28T14:13:59;3.93;;;2.00;;
18933;SDS011;9599;53.706;10.384;2023-02-28T14:16:28;2.60;;;1.90;;
18933;SDS011;9599;53.706;10.384;2023-02-28T14:19:09;2.23;;;2.00;;
18933;SDS011;9599;53.706;10.384;2023-02-28T14:21:46;3.13;;;2.00;;
18933;SDS011;9599;53.706;10.384;2023-02-28T14:24:39;4.03;;;2.20;;
18933;SDS011;9599;53.706;10.384;2023-02-28T14:27:32;4.20;;;2.80;;
18933;SDS011;9599;53.706;10.384;2023-02-28T14:30:16;4.17;;;2.47;;
18933;SDS011;9599;53.706;10.384;2023-02-28T14:33:20;3.90;;;2.60;;
18933;SDS011;9599;53.706;10.384;2023-02-28T14:35:57;2.63;;;2.43;;
18933;SDS011;9599;53.706;10.384;2023-02-28T14:38:35;2.93;;;2.27;;
18933;SDS011;9599;53.706;10.384;2023-02-28T14:41:13;5.13;;;2.50;;
18933;SDS011;9599;53.706;10.384;2023-02-28T14:43:50;3.13;;;2.20;;
18933;SDS011;9599;53.706;10.384;2023-02-28T14:46:20;2.30;;;1.90;;
18933;SDS011;9599;53.706;10.384;2023-02-28T14:48:49;2.33;;;1.97;;
18933;SDS011;9599;53.706;10.384;2023-02-28T14:51:18;3.23;;;1.93;;
18933;SDS011;9599;53.706;10.384;2023-02-28T14:53:50;3.47;;;2.40;;
18933;SDS011;9599;53.706;10.384;2023-02-28T14:56:23;5.33;;;2.60;;
18933;SDS011;9599;53.706;10.384;2023-02-28T14:58:56;3.67;;;2.57;;
18933;SDS011;9599;53.706;10.384;2023-02-28T15:01:24;4.83;;;2.60;;
18933;SDS011;9599;53.706;10.384;2023-02-28T15:04:00;4.40;;;2.80;;
18933;SDS011;9599;53.706;10.384;2023-02-28T15:06:30;2.93;;;2.50;;
18933;SDS011;9599;53.706;10.384;2023-02-28T15:09:07;3.33;;;2.50;;
18933;SDS011;9599;53.706;10.384;2023-02-28T15:11:42;4.00;;;2.97;;
18933;SDS011;9599;53.706;10.384;2023-02-28T15:14:18;4.33;;;2.77;;
18933;SDS011;9599;53.706;10.384;2023-02-28T15:16:50;4.73;;;2.97;;
18933;SDS011;9599;53.706;10.384;2023-02-28T15:19:24;3.50;;;2.60;;
18933;SDS011;9599;53.706;10.384;2023-02-28T15:21:56;4.83;;;2.80;;
18933;SDS011;9599;53.706;10.384;2023-02-28T15:24:33;3.73;;;2.70;;
18933;SDS011;9599;53.706;10.384;2023-02-28T15:27:06;4.80;;;2.67;;
18933;SDS011;9599;53.706;10.384;2023-02-28T15:29:45;4.43;;;2.53;;
18933;SDS011;9599;53.706;10.384;2023-02-28T15:32:23;4.53;;;2.63;;
18933;SDS011;9599;53.706;10.384;2023-02-28T15:34:54;4.27;;;3.00;;
18933;SDS011;9599;53.706;10.384;2023-02-28T15:37:27;6.03;;;2.83;;
18933;SDS011;9599;53.706;10.384;2023-02-28T15:40:05;3.53;;;2.40;;
18933;SDS011;9599;53.706;10.384;2023-02-28T15:42:40;3.13;;;2.40;;
18933;SDS011;9599;53.706;10.384;2023-02-28T15:45:29;3.57;;;2.40;;
18933;SDS011;9599;53.706;10.384;2023-02-28T15:48:04;4.07;;;2.50;;
18933;SDS011;9599;53.706;10.384;2023-02-28T15:50:40;3.27;;;2.50;;
18933;SDS011;9599;53.706;10.384;2023-02-28T15:53:12;2.83;;;2.50;;
18933;SDS011;9599;53.706;10.384;2023-02-28T15:55:42;3.33;;;2.30;;
18933;SDS011;9599;53.706;10.384;2023-02-28T15:58:11;3.17;;;2.40;;
18933;SDS011;9599;53.706;10.384;2023-02-28T16:00:40;4.23;;;2.50;;